createdAt,value
2023-04-16T00:01:35.624Z,8.80
2023-04-16T00:04:02.517Z,8.80
2023-04-16T00:06:29.629Z,8.80
2023-04-16T00:08:56.427Z,8.80
2023-04-16T00:11:23.132Z,8.70
2023-04-16T00:13:49.872Z,8.80
2023-04-16T00:16:16.592Z,8.80
2023-04-16T00:18:43.326Z,8.80
2023-04-16T00:21:09.971Z,8.80
2023-04-16T00:23:36.985Z,8.80
2023-04-16T00:26:04.053Z,8.80
2023-04-16T00:28:30.788Z,8.80
2023-04-16T00:30:57.470Z,8.80
2023-04-16T00:33:24.216Z,8.70
2023-04-16T00:35:51.119Z,8.80
2023-04-16T00:38:17.834Z,8.80
2023-04-16T00:40:44.500Z,8.80
2023-04-16T00:43:11.238Z,8.70
2023-04-16T00:45:38.279Z,8.80
2023-04-16T00:48:05.899Z,8.80
2023-04-16T00:50:33.650Z,8.80
2023-04-16T00:53:01.478Z,8.80
2023-04-16T00:55:28.295Z,8.80
2023-04-16T00:57:54.986Z,8.90
2023-04-16T01:00:22.031Z,8.80
2023-04-16T01:02:48.999Z,8.80
2023-04-16T01:05:16.022Z,8.80
2023-04-16T01:07:42.784Z,8.70
2023-04-16T01:10:09.506Z,8.60
2023-04-16T01:12:36.246Z,8.70
2023-04-16T01:15:03.284Z,8.60
2023-04-16T01:17:30.028Z,8.60
2023-04-16T01:20:00.128Z,8.60
2023-04-16T01:22:28.694Z,8.60
2023-04-16T01:24:55.592Z,8.60
2023-04-16T01:27:22.247Z,8.70
2023-04-16T01:29:48.929Z,8.60
2023-04-16T01:32:15.560Z,8.60
2023-04-16T01:34:42.239Z,8.60
2023-04-16T01:37:09.002Z,8.60
2023-04-16T01:39:35.728Z,8.60
2023-04-16T01:42:02.454Z,8.60
2023-04-16T01:44:30.861Z,8.60
2023-04-16T01:46:57.734Z,8.60
2023-04-16T01:49:24.578Z,8.70
2023-04-16T01:51:51.667Z,8.60
2023-04-16T01:54:18.329Z,8.60
2023-04-16T01:56:45.088Z,8.70
2023-04-16T02:01:39.453Z,8.60
2023-04-16T02:04:06.506Z,8.70
2023-04-16T02:06:33.179Z,8.70
2023-04-16T02:08:59.806Z,8.60
2023-04-16T02:11:26.620Z,8.60
2023-04-16T02:13:53.360Z,8.60
2023-04-16T02:16:20.088Z,8.60
2023-04-16T02:18:46.759Z,8.60
2023-04-16T02:21:13.884Z,8.60
2023-04-16T02:23:41.385Z,8.70
2023-04-16T02:26:08.151Z,8.70
2023-04-16T02:28:34.798Z,8.70
2023-04-16T02:31:01.487Z,8.70
2023-04-16T02:33:28.643Z,8.70
2023-04-16T02:35:55.442Z,8.70
2023-04-16T02:38:22.224Z,8.70
2023-04-16T02:40:49.003Z,8.60
2023-04-16T02:43:15.713Z,8.70
2023-04-16T02:45:42.481Z,8.60
2023-04-16T02:48:09.626Z,8.60
2023-04-16T02:50:36.352Z,8.60
2023-04-16T02:53:04.256Z,8.60
2023-04-16T02:55:31.059Z,8.60
2023-04-16T02:57:57.808Z,8.60
2023-04-16T03:00:24.428Z,8.70
2023-04-16T03:02:51.278Z,8.60
2023-04-16T03:05:18.220Z,8.60
2023-04-16T03:07:44.850Z,8.60
2023-04-16T03:10:12.262Z,8.60
2023-04-16T03:12:39.207Z,8.60
2023-04-16T03:15:06.345Z,8.70
2023-04-16T03:17:33.054Z,8.70
2023-04-16T03:19:59.808Z,8.70
2023-04-16T03:22:26.975Z,8.70
2023-04-16T03:24:53.753Z,8.70
2023-04-16T03:27:20.447Z,8.60
2023-04-16T03:29:47.107Z,8.70
2023-04-16T03:32:13.848Z,8.60
2023-04-16T03:34:40.739Z,8.60
2023-04-16T03:37:08.858Z,8.60
2023-04-16T03:39:35.618Z,8.60
2023-04-16T03:42:03.386Z,8.60
2023-04-16T03:44:30.320Z,8.50
2023-04-16T03:46:57.131Z,8.60
2023-04-16T03:49:24.045Z,8.50
2023-04-16T03:51:51.172Z,8.50
2023-04-16T03:54:17.878Z,8.50
2023-04-16T03:56:44.740Z,8.60
2023-04-16T03:59:11.588Z,8.50
2023-04-16T04:01:38.294Z,8.60
2023-04-16T04:04:05.166Z,8.60
2023-04-16T04:06:32.531Z,8.60
2023-04-16T04:08:59.533Z,8.60
2023-04-16T04:11:26.251Z,8.60
2023-04-16T04:13:53.001Z,8.60
2023-04-16T04:16:19.730Z,8.60
2023-04-16T04:18:46.483Z,8.60
2023-04-16T04:21:13.131Z,8.60
2023-04-16T04:23:41.544Z,8.60
2023-04-16T04:26:08.695Z,8.60
2023-04-16T04:28:35.565Z,8.60
2023-04-16T04:31:02.308Z,8.70
2023-04-16T04:33:29.277Z,8.60
2023-04-16T04:35:55.916Z,8.70
2023-04-16T04:38:25.123Z,8.70
2023-04-16T04:40:52.906Z,8.70
2023-04-16T04:43:20.310Z,8.70
2023-04-16T04:45:47.385Z,8.70
2023-04-16T04:48:14.200Z,8.80
2023-04-16T04:50:41.772Z,8.80
2023-04-16T04:53:11.976Z,8.70
2023-04-16T04:55:39.464Z,8.70
2023-04-16T04:58:07.236Z,8.80
2023-04-16T05:00:34.736Z,8.70
2023-04-16T05:03:06.321Z,8.80
2023-04-16T05:05:33.107Z,8.80
2023-04-16T05:07:59.826Z,8.80
2023-04-16T05:10:27.072Z,8.80
2023-04-16T05:12:53.818Z,8.90
2023-04-16T05:15:20.567Z,8.90
2023-04-16T05:17:47.358Z,9.00
2023-04-16T05:20:14.549Z,9.00
2023-04-16T05:22:41.312Z,9.00
2023-04-16T05:25:08.419Z,9.00
2023-04-16T05:27:35.335Z,9.00
2023-04-16T05:30:02.327Z,9.00
2023-04-16T05:32:29.065Z,9.00
2023-04-16T05:34:55.758Z,9.00
2023-04-16T05:37:22.425Z,9.00
2023-04-16T05:39:49.115Z,9.10
2023-04-16T05:42:16.250Z,9.00
2023-04-16T05:44:43.010Z,9.10
2023-04-16T05:47:09.655Z,9.10
2023-04-16T05:49:39.548Z,9.10
2023-04-16T05:52:07.384Z,9.10
2023-04-16T05:54:35.357Z,9.10
2023-04-16T05:57:02.141Z,9.10
2023-04-16T05:59:43.933Z,9.20
2023-04-16T06:02:10.926Z,9.10
2023-04-16T06:07:04.722Z,9.10
2023-04-16T06:09:31.400Z,9.10
2023-04-16T06:14:25.324Z,9.10
2023-04-16T06:16:52.062Z,9.10
2023-04-16T06:21:45.937Z,9.10
2023-04-16T06:29:07.270Z,9.10
2023-04-16T06:31:34.197Z,9.20
2023-04-16T06:36:29.024Z,9.20
2023-04-16T06:38:55.784Z,9.10
2023-04-16T06:41:23.637Z,9.20
2023-04-16T06:43:50.300Z,9.20
2023-04-16T06:48:44.185Z,9.20
2023-04-16T06:51:11.614Z,9.20
2023-04-16T06:53:38.600Z,9.30
2023-04-16T06:56:05.862Z,9.30
2023-04-16T06:58:32.987Z,9.30
2023-04-16T07:03:27.607Z,9.40
2023-04-16T07:08:21.661Z,9.40
2023-04-16T07:10:48.461Z,9.40
2023-04-16T07:13:15.167Z,9.50
2023-04-16T07:23:03.509Z,9.40
2023-04-16T07:25:30.252Z,9.40
2023-04-16T07:30:24.366Z,9.40
2023-04-16T07:32:51.607Z,9.40
2023-04-16T07:45:07.600Z,9.70
2023-04-16T07:50:01.418Z,9.70
2023-04-16T07:54:55.200Z,10.00
2023-04-16T07:57:21.900Z,10.10
2023-04-16T08:02:16.946Z,10.70
2023-04-16T08:07:11.704Z,11.10
2023-04-16T08:09:51.281Z,11.10
2023-04-16T08:12:18.413Z,11.00
2023-04-16T08:14:45.821Z,11.00
2023-04-16T08:17:13.676Z,10.90
2023-04-16T08:19:40.566Z,10.90
2023-04-16T08:22:07.299Z,10.90
2023-04-16T08:29:44.653Z,11.00
2023-04-16T08:34:38.609Z,11.20
2023-04-16T08:37:05.387Z,11.30
2023-04-16T08:42:02.087Z,11.30
2023-04-16T08:44:33.693Z,11.10
2023-04-16T08:49:29.411Z,11.10
2023-04-16T08:51:57.038Z,11.10
2023-04-16T08:54:43.354Z,11.30
2023-04-16T08:57:11.919Z,11.40
2023-04-16T08:59:40.081Z,11.40
2023-04-16T09:02:07.397Z,11.60
2023-04-16T09:07:04.545Z,11.60
2023-04-16T09:09:33.435Z,11.70
2023-04-16T09:12:01.358Z,11.60
2023-04-16T09:14:28.733Z,11.70
2023-04-16T09:16:56.081Z,11.80
2023-04-16T09:19:23.488Z,11.90
2023-04-16T09:24:17.902Z,12.10
2023-04-16T09:31:39.186Z,12.30
2023-04-16T09:34:09.551Z,12.30
2023-04-16T09:36:36.982Z,12.40
2023-04-16T09:39:04.244Z,12.30
2023-04-16T09:41:39.463Z,12.20
2023-04-16T09:46:40.781Z,12.20
2023-04-16T09:49:18.673Z,12.20
2023-04-16T09:51:49.568Z,12.20
2023-04-16T09:54:16.562Z,12.20
2023-04-16T09:56:45.789Z,12.10
2023-04-16T09:59:19.472Z,12.00
2023-04-16T10:02:14.243Z,12.00
2023-04-16T10:04:52.894Z,12.00
2023-04-16T10:07:20.590Z,11.90
2023-04-16T10:09:49.980Z,12.00
2023-04-16T10:12:16.702Z,11.90
2023-04-16T10:14:43.512Z,12.00
2023-04-16T10:19:38.360Z,12.00
2023-04-16T10:22:05.512Z,12.00
2023-04-16T10:24:33.812Z,12.20
2023-04-16T10:27:01.173Z,12.40
2023-04-16T10:29:29.927Z,12.40
2023-04-16T10:31:57.513Z,12.70
2023-04-16T10:34:25.486Z,12.80
2023-04-16T10:36:53.882Z,12.70
2023-04-16T10:39:22.444Z,12.90
2023-04-16T10:41:49.631Z,12.90
2023-04-16T10:44:18.075Z,12.90
2023-04-16T10:46:49.733Z,12.90
2023-04-16T10:49:26.456Z,12.80
2023-04-16T10:52:02.329Z,12.70
2023-04-16T10:54:32.385Z,12.60
2023-04-16T10:57:04.385Z,12.60
2023-04-16T10:59:33.600Z,12.50
2023-04-16T11:02:02.113Z,12.90
2023-04-16T11:04:34.035Z,13.20
2023-04-16T11:07:19.287Z,13.20
2023-04-16T11:09:56.341Z,13.40
2023-04-16T11:12:27.613Z,13.60
2023-04-16T11:14:58.731Z,13.60
2023-04-16T11:17:31.791Z,13.60
2023-04-16T11:22:26.988Z,13.50
2023-04-16T11:24:56.108Z,13.70
2023-04-16T11:27:24.281Z,13.70
2023-04-16T11:30:02.011Z,13.60
2023-04-16T11:32:34.691Z,13.50
2023-04-16T11:35:12.985Z,13.50
2023-04-16T11:40:09.526Z,13.90
2023-04-16T11:42:37.948Z,14.00
2023-04-16T11:50:16.447Z,13.90
2023-04-16T11:52:43.270Z,13.90
2023-04-16T11:55:09.972Z,14.00
2023-04-16T12:02:56.122Z,14.70
2023-04-16T12:05:30.897Z,14.80
2023-04-16T12:07:59.247Z,14.80
2023-04-16T12:10:26.421Z,14.70
2023-04-16T12:12:53.138Z,14.70
2023-04-16T12:15:19.842Z,14.60
2023-04-16T12:17:46.691Z,14.30
2023-04-16T12:20:15.461Z,13.80
2023-04-16T12:22:47.591Z,13.70
2023-04-16T12:25:16.099Z,13.70
2023-04-16T12:27:46.380Z,14.00
2023-04-16T12:30:14.472Z,14.30
2023-04-16T12:32:43.417Z,14.30
2023-04-16T12:35:11.511Z,14.50
2023-04-16T12:37:39.405Z,14.80
2023-04-16T12:40:07.140Z,15.40
2023-04-16T12:42:37.305Z,15.60
2023-04-16T12:45:05.525Z,15.90
2023-04-16T12:47:32.992Z,16.00
2023-04-16T12:49:59.845Z,16.00
2023-04-16T12:52:27.106Z,16.00
2023-04-16T12:54:54.107Z,15.90
2023-04-16T12:57:20.901Z,15.50
2023-04-16T12:59:47.670Z,15.20
2023-04-16T13:02:14.453Z,14.80
2023-04-16T13:04:41.395Z,14.70
2023-04-16T13:07:08.239Z,14.60
2023-04-16T13:09:35.096Z,14.80
2023-04-16T13:12:01.928Z,15.10
2023-04-16T13:14:28.654Z,15.40
2023-04-16T13:16:55.470Z,15.40
2023-04-16T13:19:22.327Z,15.60
2023-04-16T13:21:49.138Z,15.60
2023-04-16T13:24:15.970Z,15.60
2023-04-16T13:26:43.421Z,15.50
2023-04-16T13:29:10.463Z,15.30
2023-04-16T13:31:38.093Z,15.10
2023-04-16T13:34:04.945Z,15.00
2023-04-16T13:36:33.043Z,15.10
2023-04-16T13:38:59.982Z,15.10
2023-04-16T13:41:26.615Z,15.10
2023-04-16T13:43:54.203Z,15.20
2023-04-16T13:46:21.110Z,15.40
2023-04-16T13:48:47.857Z,15.50
2023-04-16T13:51:15.595Z,15.40
2023-04-16T13:53:42.337Z,15.30
2023-04-16T13:56:10.341Z,15.60
2023-04-16T13:58:37.804Z,15.60
2023-04-16T14:01:04.750Z,15.80
2023-04-16T14:03:35.832Z,15.80
2023-04-16T14:06:03.404Z,15.60
2023-04-16T14:08:30.371Z,15.60
2023-04-16T14:10:57.815Z,15.40
2023-04-16T14:13:25.559Z,15.40
2023-04-16T14:15:55.585Z,15.30
2023-04-16T14:18:22.433Z,15.30
2023-04-16T14:20:49.115Z,15.30
2023-04-16T14:23:15.777Z,15.10
2023-04-16T14:25:42.543Z,15.00
2023-04-16T14:28:09.385Z,15.00
2023-04-16T14:30:36.094Z,15.00
2023-04-16T14:33:05.720Z,14.80
2023-04-16T14:35:33.781Z,14.70
2023-04-16T14:38:01.360Z,14.60
2023-04-16T14:40:28.135Z,14.50
2023-04-16T14:42:54.798Z,14.50
2023-04-16T14:45:21.928Z,14.50
2023-04-16T14:47:49.873Z,14.50
2023-04-16T14:50:16.770Z,14.50
2023-04-16T14:52:43.498Z,14.50
2023-04-16T14:55:10.281Z,14.50
2023-04-16T14:57:38.383Z,14.60
2023-04-16T15:00:10.426Z,14.70
2023-04-16T15:02:37.699Z,14.90
2023-04-16T15:05:04.858Z,14.80
2023-04-16T15:07:31.957Z,15.00
2023-04-16T15:09:59.304Z,14.90
2023-04-16T15:12:26.478Z,15.20
2023-04-16T15:14:53.260Z,15.20
2023-04-16T15:17:20.864Z,15.30
2023-04-16T15:19:47.745Z,15.40
2023-04-16T15:22:14.809Z,15.10
2023-04-16T15:24:41.680Z,15.10
2023-04-16T15:27:11.635Z,15.10
2023-04-16T15:29:38.690Z,15.00
2023-04-16T15:32:06.948Z,15.00
2023-04-16T15:34:33.665Z,14.90
2023-04-16T15:37:00.419Z,14.90
2023-04-16T15:39:27.149Z,14.90
2023-04-16T15:42:01.185Z,14.90
2023-04-16T15:44:30.944Z,15.00
2023-04-16T15:46:57.683Z,15.20
2023-04-16T15:49:24.809Z,15.30
2023-04-16T15:51:52.061Z,15.20
2023-04-16T15:54:19.083Z,15.40
2023-04-16T15:56:46.638Z,15.30
2023-04-16T15:59:13.694Z,15.20
2023-04-16T16:01:40.854Z,15.30
2023-04-16T16:04:08.352Z,15.20
2023-04-16T16:06:35.759Z,15.00
2023-04-16T16:09:02.497Z,15.00
2023-04-16T16:11:29.217Z,15.20
2023-04-16T16:13:56.022Z,15.20
2023-04-16T16:16:22.780Z,15.30
2023-04-16T16:18:49.538Z,15.30
2023-04-16T16:21:16.616Z,15.40
2023-04-16T16:23:43.265Z,15.30
2023-04-16T16:26:09.962Z,15.00
2023-04-16T16:28:37.896Z,14.90
2023-04-16T16:31:06.020Z,14.90
2023-04-16T16:33:33.212Z,15.00
2023-04-16T16:35:59.897Z,15.10
2023-04-16T16:38:26.991Z,15.30
2023-04-16T16:40:53.718Z,15.30
2023-04-16T16:43:20.654Z,15.30
2023-04-16T16:45:47.357Z,15.20
2023-04-16T16:48:14.091Z,15.00
2023-04-16T16:50:40.892Z,15.00
2023-04-16T16:53:07.577Z,15.00
2023-04-16T16:55:35.501Z,14.90
2023-04-16T16:58:02.647Z,14.80
2023-04-16T17:00:29.315Z,14.60
2023-04-16T17:02:56.387Z,14.60
2023-04-16T17:05:23.464Z,14.50
2023-04-16T17:07:50.357Z,14.50
2023-04-16T17:10:20.810Z,14.30
2023-04-16T17:12:48.610Z,14.40
2023-04-16T17:15:15.733Z,14.30
2023-04-16T17:17:42.755Z,14.20
2023-04-16T17:20:10.814Z,14.10
2023-04-16T17:22:38.429Z,14.00
2023-04-16T17:25:07.501Z,14.00
2023-04-16T17:27:34.408Z,13.90
2023-04-16T17:30:02.234Z,13.90
2023-04-16T17:32:29.809Z,13.80
2023-04-16T17:34:56.866Z,13.80
2023-04-16T17:37:23.940Z,13.90
2023-04-16T17:39:51.480Z,13.90
2023-04-16T17:42:18.184Z,13.80
2023-04-16T17:44:44.978Z,13.80
2023-04-16T17:47:12.573Z,13.70
2023-04-16T17:49:39.232Z,13.60
2023-04-16T17:52:06.445Z,13.50
2023-04-16T17:54:33.154Z,13.30
2023-04-16T17:56:59.824Z,13.30
2023-04-16T17:59:27.301Z,13.10
2023-04-16T18:01:54.728Z,13.00
2023-04-16T18:04:21.680Z,13.00
2023-04-16T18:06:48.711Z,12.90
2023-04-16T18:09:15.563Z,12.80
2023-04-16T18:11:42.632Z,12.80
2023-04-16T18:14:11.589Z,12.70
2023-04-16T18:16:38.600Z,12.70
2023-04-16T18:19:05.558Z,12.60
2023-04-16T18:21:32.280Z,12.60
2023-04-16T18:24:00.872Z,12.50
2023-04-16T18:26:29.906Z,12.50
2023-04-16T18:28:57.160Z,12.50
2023-04-16T18:31:23.994Z,12.50
2023-04-16T18:33:57.386Z,12.40
2023-04-16T18:36:26.866Z,12.40
2023-04-16T18:41:24.353Z,12.30
2023-04-16T18:43:51.181Z,12.30
2023-04-16T18:46:18.289Z,12.20
2023-04-16T18:48:45.474Z,12.20
2023-04-16T18:51:14.248Z,12.20
2023-04-16T18:53:44.082Z,12.20
2023-04-16T18:56:11.129Z,12.20
2023-04-16T18:58:38.071Z,12.20
2023-04-16T19:01:07.785Z,12.20
2023-04-16T19:03:34.791Z,12.20
2023-04-16T19:06:01.880Z,12.10
2023-04-16T19:08:28.608Z,12.10
2023-04-16T19:10:55.401Z,12.20
2023-04-16T19:13:22.193Z,12.20
2023-04-16T19:15:48.971Z,12.20
2023-04-16T19:18:15.809Z,12.20
2023-04-16T19:20:42.545Z,12.20
2023-04-16T19:23:09.252Z,12.10
2023-04-16T19:25:39.273Z,12.20
2023-04-16T19:28:05.978Z,12.20
2023-04-16T19:30:32.721Z,12.10
2023-04-16T19:32:59.530Z,12.20
2023-04-16T19:35:27.038Z,12.20
2023-04-16T19:37:56.141Z,12.10
2023-04-16T19:40:22.853Z,12.10
2023-04-16T19:42:49.546Z,12.10
2023-04-16T19:45:17.605Z,12.10
2023-04-16T19:47:44.849Z,12.10
2023-04-16T19:50:11.750Z,12.10
2023-04-16T19:52:38.884Z,12.10
2023-04-16T19:55:07.032Z,12.00
2023-04-16T19:57:33.870Z,12.00
2023-04-16T20:00:00.818Z,12.10
2023-04-16T20:02:27.863Z,12.00
2023-04-16T20:04:54.762Z,12.00
2023-04-16T20:07:21.505Z,12.00
2023-04-16T20:09:48.236Z,12.00
2023-04-16T20:12:14.920Z,11.90
2023-04-16T20:14:41.933Z,12.00
2023-04-16T20:17:09.905Z,12.00
2023-04-16T20:19:40.492Z,11.90
2023-04-16T20:22:07.306Z,11.90
2023-04-16T20:24:34.202Z,11.80
2023-04-16T20:27:01.692Z,11.90
2023-04-16T20:29:28.439Z,11.80
2023-04-16T20:31:55.237Z,11.90
2023-04-16T20:34:21.893Z,11.80
2023-04-16T20:36:48.745Z,11.90
2023-04-16T20:39:20.176Z,11.90
2023-04-16T20:41:56.355Z,11.80
2023-04-16T20:44:26.326Z,11.90
2023-04-16T20:46:56.969Z,11.90
2023-04-16T20:49:24.930Z,11.80
2023-04-16T20:51:51.900Z,11.80
2023-04-16T20:54:18.544Z,11.80
2023-04-16T20:56:45.779Z,11.90
2023-04-16T20:59:13.333Z,11.80
2023-04-16T21:01:40.198Z,11.70
2023-04-16T21:04:07.273Z,11.60
2023-04-16T21:06:38.417Z,11.60
2023-04-16T21:09:05.986Z,11.70
2023-04-16T21:11:34.655Z,11.60
2023-04-16T21:14:04.539Z,11.60
2023-04-16T21:16:32.054Z,11.70
2023-04-16T21:18:59.107Z,11.70
2023-04-16T21:21:27.438Z,11.60
2023-04-16T21:23:54.162Z,11.60
2023-04-16T21:26:20.927Z,11.50
2023-04-16T21:28:48.079Z,11.60
2023-04-16T21:31:14.841Z,11.60
2023-04-16T21:33:41.604Z,11.50
2023-04-16T21:36:08.472Z,11.50
2023-04-16T21:38:35.131Z,11.40
2023-04-16T21:41:02.296Z,11.40
2023-04-16T21:43:31.853Z,11.50
2023-04-16T21:45:59.314Z,11.40
2023-04-16T21:48:27.001Z,11.30
2023-04-16T21:51:00.018Z,11.30
2023-04-16T21:53:30.831Z,11.30
2023-04-16T21:55:57.551Z,11.20
2023-04-16T21:58:25.818Z,11.10
2023-04-16T22:00:53.488Z,11.10
2023-04-16T22:03:26.437Z,11.00
2023-04-16T22:06:02.516Z,11.10
2023-04-16T22:08:30.280Z,11.00
2023-04-16T22:10:59.112Z,11.00
2023-04-16T22:13:26.468Z,11.10
2023-04-16T22:15:54.626Z,11.00
2023-04-16T22:18:21.987Z,10.90
2023-04-16T22:20:50.738Z,11.00
2023-04-16T22:23:17.683Z,11.00
2023-04-16T22:25:44.572Z,11.00
2023-04-16T22:28:11.397Z,11.00
2023-04-16T22:30:38.147Z,11.00
2023-04-16T22:33:04.962Z,11.10
2023-04-16T22:35:31.708Z,11.00
2023-04-16T22:37:58.400Z,11.00
2023-04-16T22:40:25.405Z,11.00
2023-04-16T22:42:52.077Z,11.00
2023-04-16T22:45:18.829Z,11.10
2023-04-16T22:47:45.610Z,11.10
2023-04-16T22:50:12.500Z,11.10
2023-04-16T22:52:39.226Z,11.10
2023-04-16T22:55:06.834Z,11.10
2023-04-16T22:57:33.551Z,11.10
2023-04-16T23:00:00.346Z,11.10
2023-04-16T23:02:27.095Z,11.10
2023-04-16T23:04:53.919Z,11.00
2023-04-16T23:07:20.829Z,11.00
2023-04-16T23:09:47.544Z,11.00
2023-04-16T23:12:14.254Z,11.00
2023-04-16T23:14:45.700Z,11.00
2023-04-16T23:17:13.714Z,11.00
2023-04-16T23:19:40.448Z,11.00
2023-04-16T23:22:07.191Z,11.00
2023-04-16T23:24:33.872Z,11.00
2023-04-16T23:27:01.082Z,11.00
2023-04-16T23:29:27.750Z,11.00
2023-04-16T23:31:54.470Z,11.00
2023-04-16T23:34:21.400Z,11.00
2023-04-16T23:36:48.097Z,10.90
2023-04-16T23:39:14.767Z,10.90
2023-04-16T23:41:41.426Z,10.90
2023-04-16T23:44:08.152Z,10.90
2023-04-16T23:46:35.010Z,10.90
2023-04-16T23:49:01.851Z,10.90
2023-04-16T23:51:28.497Z,10.90
2023-04-16T23:53:55.163Z,11.00
2023-04-16T23:56:22.125Z,11.00
2023-04-16T23:58:48.932Z,10.90
